Impacts METAR Board
IDs:

KCVB - Castroville Muni, TX, US

Updated at: 0000 UTC 19 Oct 2019
Potential Impact None Slight Moderate High
Time 18/12Z 18/13Z 18/14Z 18/15Z 18/16Z 18/17Z 18/18Z 18/19Z 18/20Z 18/21Z 18/22Z 18/23Z 19/00Z
Temp53 53 58 64 67 73 76 80 81 83 83 82 79
Dewpt51 51 49 47 46 44 49 49 51 53 53 53 56
Altim29.91 29.91 29.91 29.91 29.90 29.88 29.86 29.82 29.78 29.76 29.75 29.73 29.73
VIS10 7 7 7 7 10 10 10 10 10 10 10 10
CIG-- -- -- -- -- -- -- -- -- -- -- -- --
CoverCLRCLRCLRCLRCLRCLRCLRCLRCLRCLRCLRCLRCLR
FltCatVFRVFRVFRVFRVFRVFRVFRVFRVFRVFRVFRVFRVFR
WX--------------------------
WDir000110150110170150200180180170150
WSpd0 0 0 3 4 3 3 7 6 8 10 6 3
WGst-- -- -- -- -- -- -- -- -- -- -- -- --
Raw hourly METARs
KCVB 181155Z AUTO 00000KT 10SM CLR 12/11 A2991 RMK AO2 7//// T01170108 10135 20117
KCVB 181255Z AUTO 00000KT 7SM CLR 12/11 A2991 RMK AO2 T01150107
KCVB 181355Z AUTO 00000KT 7SM CLR 15/10 A2991 RMK AO2 T01470095
KCVB 181455Z AUTO 11003KT 7SM CLR 18/09 A2991 RMK AO2 T01750086
KCVB 181555Z AUTO 15004KT 7SM CLR 20/08 A2990 RMK AO2 T01960077
KCVB 181655Z AUTO 11003KT 10SM CLR 23/07 A2988 RMK AO2 T02260069
KCVB 181755Z AUTO 17003KT 10SM CLR 25/10 A2986 RMK AO2 T02450097 10246 20114
KCVB 181855Z AUTO 15007KT 110V170 10SM CLR 27/10 A2982 RMK AO2 T02650095
KCVB 181955Z AUTO 20006KT 10SM CLR 27/11 A2978 RMK AO2 T02720107
KCVB 182055Z AUTO 18008KT 10SM CLR 28/12 A2976 RMK AO2 T02830118
KCVB 182155Z AUTO 18010KT 10SM CLR 29/12 A2975 RMK AO2 T02860115
KCVB 182255Z AUTO 17006KT 10SM CLR 28/12 A2973 RMK AO2 T02780115
KCVB 182355Z AUTO 15003KT 10SM CLR 26/13 A2973 RMK AO2 T02590131 10288 20245